Time,TemperatureF,DewpointF,PressureIn,WindDirection,WindDirectionDegrees,WindSpeedMPH,WindSpeedGustMPH,Humidity,HourlyPrecipIn,Conditions,Clouds,dailyrainin,SoftwareType,DateUTC
2013-03-27 00:08:00,39.0,22.0,-100.00,WNW,292,6.3,-999.0,50,-99.99,,,0.00,Acu-Link.com,2013-03-27 04:08:00,
2013-03-27 00:23:00,38.8,22.3,-100.00,NW,315,5.8,-999.0,51,-99.99,,,0.00,Acu-Link.com,2013-03-27 04:23:00,
2013-03-27 00:39:00,38.5,21.9,-100.00,WNW,292,3.1,-999.0,51,-99.99,,,0.00,Acu-Link.com,2013-03-27 04:39:00,
2013-03-27 00:54:00,38.5,21.9,-100.00,WNW,292,4.3,-999.0,51,-99.99,,,0.00,Acu-Link.com,2013-03-27 04:54:00,
2013-03-27 01:09:00,37.9,21.9,-100.00,WNW,292,3.8,-999.0,52,-99.99,,,0.00,Acu-Link.com,2013-03-27 05:09:00,
2013-03-27 01:24:00,37.9,21.9,-100.00,WNW,292,2.7,-999.0,52,-99.99,,,0.00,Acu-Link.com,2013-03-27 05:24:00,
2013-03-27 01:40:00,37.6,22.0,-100.00,NW,315,3.1,-999.0,53,-99.99,,,0.00,Acu-Link.com,2013-03-27 05:40:00,
2013-03-27 01:55:00,37.0,22.0,-100.00,NW,315,3.1,-999.0,54,-99.99,,,0.00,Acu-Link.com,2013-03-27 05:55:00,
2013-03-27 02:10:00,37.0,22.0,-100.00,West,270,4.7,-999.0,54,-99.99,,,0.00,Acu-Link.com,2013-03-27 06:10:00,
2013-03-27 02:25:00,36.9,21.8,-100.00,West,270,2.7,-999.0,54,-99.99,,,0.00,Acu-Link.com,2013-03-27 06:25:00,
2013-03-27 02:40:00,36.1,21.6,-100.00,West,270,3.1,-999.0,55,-99.99,,,0.00,Acu-Link.com,2013-03-27 06:40:00,
2013-03-27 02:56:00,36.0,21.8,-100.00,West,270,4.3,-999.0,56,-99.99,,,0.00,Acu-Link.com,2013-03-27 06:56:00,
2013-03-27 03:11:00,35.6,21.5,-100.00,NNW,337,3.8,-999.0,56,-99.99,,,0.00,Acu-Link.com,2013-03-27 07:11:00,
2013-03-27 03:41:00,35.2,21.6,-100.00,West,270,2.2,-999.0,57,-99.99,,,0.00,Acu-Link.com,2013-03-27 07:41:00,
2013-03-27 03:56:00,34.9,21.6,-100.00,WNW,292,2.7,-999.0,58,-99.99,,,0.00,Acu-Link.com,2013-03-27 07:56:00,
2013-03-27 04:12:00,34.9,21.6,-100.00,WNW,292,4.7,-999.0,58,-99.99,,,0.00,Acu-Link.com,2013-03-27 08:12:00,
2013-03-27 04:27:00,34.5,21.7,-100.00,WNW,292,2.2,-999.0,59,-99.99,,,0.00,Acu-Link.com,2013-03-27 08:27:00,
2013-03-27 04:42:00,34.5,21.7,-100.00,West,270,3.8,-999.0,59,-99.99,,,0.00,Acu-Link.com,2013-03-27 08:42:00,
2013-03-27 04:57:00,34.3,21.5,-100.00,NW,315,2.7,-999.0,59,-99.99,,,0.00,Acu-Link.com,2013-03-27 08:57:00,
2013-03-27 05:12:00,34.5,21.3,-100.00,West,270,2.7,-999.0,58,-99.99,,,0.00,Acu-Link.com,2013-03-27 09:12:00,
2013-03-27 05:27:00,34.3,21.1,-100.00,West,270,3.8,-999.0,58,-99.99,,,0.00,Acu-Link.com,2013-03-27 09:27:00,
2013-03-27 05:42:00,34.2,21.3,-100.00,West,270,3.1,-999.0,59,-99.99,,,0.00,Acu-Link.com,2013-03-27 09:42:00,
2013-03-27 05:57:00,34.3,21.5,-100.00,NW,315,3.1,-999.0,59,-99.99,,,0.00,Acu-Link.com,2013-03-27 09:57:00,
2013-03-27 06:13:00,34.3,21.5,-100.00,NW,315,3.8,-999.0,59,-99.99,,,0.00,Acu-Link.com,2013-03-27 10:13:00,
2013-03-27 06:28:00,34.0,21.2,-100.00,WNW,292,5.8,-999.0,59,-99.99,,,0.00,Acu-Link.com,2013-03-27 10:28:00,
2013-03-27 06:43:00,34.0,21.6,-100.00,West,270,3.8,-999.0,60,-99.99,,,0.00,Acu-Link.com,2013-03-27 10:43:00,
2013-03-27 06:58:00,34.0,21.2,-100.00,WNW,292,3.8,-999.0,59,-99.99,,,0.00,Acu-Link.com,2013-03-27 10:58:00,
2013-03-27 07:13:00,35.2,21.6,-100.00,NNW,337,4.7,-999.0,57,-99.99,,,0.00,Acu-Link.com,2013-03-27 11:13:00,
2013-03-27 07:29:00,36.1,22.0,-100.00,West,270,7.4,-999.0,56,-99.99,,,0.00,Acu-Link.com,2013-03-27 11:29:00,
2013-03-27 07:44:00,37.0,22.4,-100.00,West,270,3.8,-999.0,55,-99.99,,,0.00,Acu-Link.com,2013-03-27 11:44:00,
2013-03-27 07:59:00,38.7,22.6,-100.00,NNW,337,5.8,-999.0,52,-99.99,,,0.00,Acu-Link.com,2013-03-27 11:59:00,
2013-03-27 08:14:00,39.2,22.6,-100.00,West,270,5.8,-999.0,51,-99.99,,,0.00,Acu-Link.com,2013-03-27 12:14:00,
2013-03-27 08:29:00,40.1,23.0,-100.00,West,270,8.3,-999.0,50,-99.99,,,0.00,Acu-Link.com,2013-03-27 12:29:00,
2013-03-27 08:44:00,41.5,23.3,-100.00,NW,315,5.1,-999.0,48,-99.99,,,0.00,Acu-Link.com,2013-03-27 12:44:00,
2013-03-27 09:00:00,43.0,23.6,-100.00,West,270,6.7,-999.0,46,-99.99,,,0.00,Acu-Link.com,2013-03-27 13:00:00,
2013-03-27 09:15:00,44.1,24.1,-100.00,NW,315,3.8,-999.0,45,-99.99,,,0.00,Acu-Link.com,2013-03-27 13:15:00,
2013-03-27 09:30:00,45.7,24.5,-100.00,NW,315,3.1,-999.0,43,-99.99,,,0.00,Acu-Link.com,2013-03-27 13:30:00,
2013-03-27 09:45:00,47.7,25.1,-100.00,NNW,337,6.3,-999.0,41,-99.99,,,0.00,Acu-Link.com,2013-03-27 13:45:00,
2013-03-27 10:00:00,48.6,24.7,-100.00,West,270,4.7,-999.0,39,-99.99,,,0.00,Acu-Link.com,2013-03-27 14:00:00,
2013-03-27 10:15:00,48.7,24.9,-100.00,WNW,292,6.7,-999.0,39,-99.99,,,0.00,Acu-Link.com,2013-03-27 14:15:00,
2013-03-27 10:31:00,48.7,24.3,-100.00,West,270,7.4,-999.0,38,-99.99,,,0.00,Acu-Link.com,2013-03-27 14:31:00,
2013-03-27 10:46:00,49.8,25.2,-100.00,ENE,67,3.8,-999.0,38,-99.99,,,0.00,Acu-Link.com,2013-03-27 14:46:00,
2013-03-27 11:01:00,50.7,25.4,-100.00,West,270,7.8,-999.0,37,-99.99,,,0.00,Acu-Link.com,2013-03-27 15:01:00,
2013-03-27 11:16:00,51.8,25.0,-100.00,West,270,8.3,-999.0,35,-99.99,,,0.00,Acu-Link.com,2013-03-27 15:16:00,
2013-03-27 11:31:00,52.0,25.2,-100.00,North,0,7.4,-999.0,35,-99.99,,,0.00,Acu-Link.com,2013-03-27 15:31:00,
2013-03-27 11:47:00,52.3,24.8,-100.00,West,270,3.1,-999.0,34,-99.99,,,0.00,Acu-Link.com,2013-03-27 15:47:00,
2013-03-27 12:02:00,53.1,25.4,-100.00,North,0,7.4,-999.0,34,-99.99,,,0.00,Acu-Link.com,2013-03-27 16:02:00,
2013-03-27 12:17:00,53.8,25.4,-100.00,WNW,292,9.8,-999.0,33,-99.99,,,0.00,Acu-Link.com,2013-03-27 16:17:00,
2013-03-27 12:32:00,53.8,25.4,-100.00,West,270,11.0,-999.0,33,-99.99,,,0.00,Acu-Link.com,2013-03-27 16:32:00,
2013-03-27 12:47:00,52.2,24.7,-100.00,NE,45,8.3,-999.0,34,-99.99,,,0.00,Acu-Link.com,2013-03-27 16:47:00,
2013-03-27 13:18:00,52.3,23.4,-100.00,NNW,337,6.3,-999.0,32,-99.99,,,0.00,Acu-Link.com,2013-03-27 17:18:00,
2013-03-27 13:33:00,54.0,24.0,-100.00,West,270,10.3,-999.0,31,-99.99,,,0.00,Acu-Link.com,2013-03-27 17:33:00,
2013-03-27 13:48:00,53.2,24.2,-100.00,WNW,292,6.3,-999.0,32,-99.99,,,0.00,Acu-Link.com,2013-03-27 17:48:00,
2013-03-27 14:03:00,53.4,24.3,-100.00,West,270,13.4,-999.0,32,-99.99,,,0.00,Acu-Link.com,2013-03-27 18:03:00,
2013-03-27 14:18:00,52.7,23.7,-100.00,ENE,67,5.8,-999.0,32,-99.99,,,0.00,Acu-Link.com,2013-03-27 18:18:00,
2013-03-27 14:34:00,52.9,23.8,-100.00,West,270,6.7,-999.0,32,-99.99,,,0.00,Acu-Link.com,2013-03-27 18:34:00,
2013-03-27 14:49:00,52.3,23.4,-100.00,West,270,6.3,-999.0,32,-99.99,,,0.00,Acu-Link.com,2013-03-27 18:49:00,
2013-03-27 15:04:00,54.0,24.0,-100.00,WNW,292,9.4,-999.0,31,-99.99,,,0.00,Acu-Link.com,2013-03-27 19:04:00,
2013-03-27 15:19:00,54.0,23.2,-100.00,West,270,9.4,-999.0,30,-99.99,,,0.00,Acu-Link.com,2013-03-27 19:19:00,
2013-03-27 15:34:00,54.1,23.4,-100.00,North,0,4.3,-999.0,30,-99.99,,,0.00,Acu-Link.com,2013-03-27 19:34:00,
2013-03-27 15:49:00,53.6,23.7,-100.00,WNW,292,7.4,-999.0,31,-99.99,,,0.00,Acu-Link.com,2013-03-27 19:49:00,
2013-03-27 16:05:00,52.9,23.8,-100.00,West,270,10.3,-999.0,32,-99.99,,,0.00,Acu-Link.com,2013-03-27 20:05:00,
2013-03-27 16:20:00,53.1,24.7,-100.00,WNW,292,4.3,-999.0,33,-99.99,,,0.00,Acu-Link.com,2013-03-27 20:20:00,
2013-03-27 16:35:00,52.5,24.3,-100.00,SW,225,3.1,-999.0,33,-99.99,,,0.00,Acu-Link.com,2013-03-27 20:35:00,
2013-03-27 16:50:00,52.2,23.9,-100.00,West,270,9.4,-999.0,33,-99.99,,,0.00,Acu-Link.com,2013-03-27 20:50:00,
2013-03-27 17:05:00,51.6,24.2,-100.00,West,270,6.7,-999.0,34,-99.99,,,0.00,Acu-Link.com,2013-03-27 21:05:00,
2013-03-27 17:20:00,51.8,24.3,-100.00,NNW,337,6.7,-999.0,34,-99.99,,,0.00,Acu-Link.com,2013-03-27 21:20:00,
2013-03-27 17:35:00,51.3,23.9,-100.00,East,90,7.4,-999.0,34,-99.99,,,0.00,Acu-Link.com,2013-03-27 21:35:00,
2013-03-27 17:50:00,52.5,25.0,-100.00,WNW,292,7.4,-999.0,34,-99.99,,,0.00,Acu-Link.com,2013-03-27 21:50:00,
2013-03-27 18:21:00,52.2,24.7,-100.00,West,270,17.7,-999.0,34,-99.99,,,0.00,Acu-Link.com,2013-03-27 22:21:00,
2013-03-27 18:36:00,51.1,23.7,-100.00,NNE,22,8.3,-999.0,34,-99.99,,,0.00,Acu-Link.com,2013-03-27 22:36:00,
2013-03-27 18:51:00,49.6,24.4,-100.00,WNW,292,6.7,-999.0,37,-99.99,,,0.00,Acu-Link.com,2013-03-27 22:51:00,
2013-03-27 19:07:00,49.3,24.1,-100.00,NNE,22,5.1,-999.0,37,-99.99,,,0.00,Acu-Link.com,2013-03-27 23:07:00,
2013-03-27 19:22:00,49.1,24.6,-100.00,NE,45,5.1,-999.0,38,-99.99,,,0.00,Acu-Link.com,2013-03-27 23:22:00,
2013-03-27 19:37:00,49.1,25.2,-100.00,NE,45,3.8,-999.0,39,-99.99,,,0.00,Acu-Link.com,2013-03-27 23:37:00,
2013-03-27 19:52:00,48.7,24.9,-100.00,WNW,292,1.6,-999.0,39,-99.99,,,0.00,Acu-Link.com,2013-03-27 23:52:00,
2013-03-27 20:07:00,48.6,25.3,-100.00,NE,45,7.8,-999.0,40,-99.99,,,0.00,Acu-Link.com,2013-03-28 00:07:00,
2013-03-27 20:23:00,47.8,27.0,-100.00,NE,45,4.7,-999.0,44,-99.99,,,0.00,Acu-Link.com,2013-03-28 00:23:00,
2013-03-27 20:38:00,47.1,27.4,-100.00,NE,45,6.3,-999.0,46,-99.99,,,0.00,Acu-Link.com,2013-03-28 00:38:00,
2013-03-27 20:53:00,46.8,27.6,-100.00,North,0,4.3,-999.0,47,-99.99,,,0.00,Acu-Link.com,2013-03-28 00:53:00,
2013-03-27 21:08:00,46.6,28.5,-100.00,NNE,22,7.8,-999.0,49,-99.99,,,0.00,Acu-Link.com,2013-03-28 01:08:00,
2013-03-27 21:23:00,46.2,28.1,-100.00,North,0,14.1,-999.0,49,-99.99,,,0.00,Acu-Link.com,2013-03-28 01:23:00,
2013-03-27 21:38:00,45.9,28.8,-100.00,NNW,337,7.4,-999.0,51,-99.99,,,0.00,Acu-Link.com,2013-03-28 01:38:00,
2013-03-27 21:53:00,45.3,28.7,-100.00,NNW,337,8.9,-999.0,52,-99.99,,,0.00,Acu-Link.com,2013-03-28 01:53:00,
2013-03-27 22:09:00,45.0,28.4,-100.00,NNE,22,9.4,-999.0,52,-99.99,,,0.00,Acu-Link.com,2013-03-28 02:09:00,
2013-03-27 22:24:00,44.4,28.8,-100.00,NW,315,4.7,-999.0,54,-99.99,,,0.00,Acu-Link.com,2013-03-28 02:24:00,
2013-03-27 22:39:00,44.1,28.9,-100.00,ENE,67,5.8,-999.0,55,-99.99,,,0.00,Acu-Link.com,2013-03-28 02:39:00,
2013-03-27 22:54:00,43.7,29.5,-100.00,West,270,3.8,-999.0,57,-99.99,,,0.00,Acu-Link.com,2013-03-28 02:54:00,
2013-03-27 23:09:00,43.5,30.2,-100.00,NE,45,7.4,-999.0,59,-99.99,,,0.00,Acu-Link.com,2013-03-28 03:09:00,
2013-03-27 23:24:00,43.2,30.6,-100.00,West,270,9.8,-999.0,61,-99.99,,,0.00,Acu-Link.com,2013-03-28 03:24:00,
2013-03-27 23:39:00,42.4,31.1,-100.00,NNW,337,5.8,-999.0,64,-99.99,,,0.00,Acu-Link.com,2013-03-28 03:39:00,
2013-03-27 23:54:00,41.9,31.4,-100.00,NE,45,5.1,-999.0,66,-99.99,,,0.00,Acu-Link.com,2013-03-28 03:54:00,